createdAt,value
2017-12-15T00:01:09.084Z,34.33
2017-12-15T00:03:34.835Z,33.87
2017-12-15T00:06:00.590Z,33.40
2017-12-15T00:08:26.369Z,34.30
2017-12-15T00:10:52.152Z,32.27
2017-12-15T00:13:17.912Z,33.30
2017-12-15T00:15:43.664Z,34.27
2017-12-15T00:18:09.431Z,33.53
2017-12-15T00:20:35.199Z,34.10
2017-12-15T00:23:00.971Z,35.43
2017-12-15T00:25:26.745Z,34.67
2017-12-15T00:27:52.501Z,35.03
2017-12-15T00:30:18.275Z,33.80
2017-12-15T00:32:44.024Z,34.17
2017-12-15T00:35:09.799Z,33.30
2017-12-15T00:37:35.561Z,33.43
2017-12-15T00:40:01.328Z,33.40
2017-12-15T00:42:27.074Z,33.50
2017-12-15T00:44:52.853Z,35.57
2017-12-15T00:47:18.620Z,35.27
2017-12-15T00:49:44.392Z,36.70
2017-12-15T00:52:10.160Z,37.07
2017-12-15T00:54:35.917Z,36.90
2017-12-15T00:57:01.688Z,37.17
2017-12-15T00:59:27.448Z,36.27
2017-12-15T01:01:53.227Z,37.73
2017-12-15T01:04:19.012Z,38.73
2017-12-15T01:06:44.771Z,38.23
2017-12-15T01:09:10.570Z,38.13
2017-12-15T01:11:36.314Z,36.13
2017-12-15T01:14:02.079Z,38.93
2017-12-15T01:16:27.856Z,37.43
2017-12-15T01:18:53.608Z,37.40
2017-12-15T01:21:19.378Z,37.03
2017-12-15T01:23:45.123Z,36.10
2017-12-15T01:26:10.910Z,35.97
2017-12-15T01:28:36.662Z,35.87
2017-12-15T01:31:02.433Z,37.27
2017-12-15T01:33:28.199Z,36.53
2017-12-15T01:35:53.967Z,37.07
2017-12-15T01:38:19.719Z,35.43
2017-12-15T01:40:45.494Z,36.97
2017-12-15T01:43:11.264Z,37.17
2017-12-15T01:45:37.018Z,36.30
2017-12-15T01:48:02.802Z,33.67
2017-12-15T01:50:28.569Z,34.07
2017-12-15T01:52:54.343Z,33.23
2017-12-15T01:55:20.099Z,33.57
2017-12-15T01:57:45.879Z,30.77
2017-12-15T02:00:11.648Z,31.87
2017-12-15T02:02:37.428Z,33.97
2017-12-15T02:05:03.179Z,34.50
2017-12-15T02:07:28.942Z,33.30
2017-12-15T02:09:54.691Z,32.73
2017-12-15T02:12:20.444Z,32.37
2017-12-15T02:14:46.190Z,30.53
2017-12-15T02:17:11.988Z,32.23
2017-12-15T02:19:37.759Z,30.60
2017-12-15T02:22:03.514Z,30.57
2017-12-15T02:24:29.291Z,29.90
2017-12-15T02:26:55.062Z,29.73
2017-12-15T02:29:20.830Z,28.90
2017-12-15T02:31:46.589Z,30.27
2017-12-15T02:34:12.381Z,29.87
2017-12-15T02:36:38.148Z,29.33
2017-12-15T02:39:04.007Z,30.33
2017-12-15T02:41:29.755Z,29.27
2017-12-15T02:43:55.521Z,30.77
2017-12-15T02:46:21.295Z,31.00
2017-12-15T02:48:47.064Z,30.00
2017-12-15T02:51:12.811Z,28.17
2017-12-15T02:53:38.585Z,30.60
2017-12-15T02:56:04.335Z,30.93
2017-12-15T02:58:30.120Z,29.40
2017-12-15T03:00:55.887Z,29.57
2017-12-15T03:03:21.651Z,30.47
2017-12-15T03:05:47.423Z,30.60
2017-12-15T03:08:13.182Z,29.10
2017-12-15T03:10:38.961Z,29.83
2017-12-15T03:13:04.720Z,29.73
2017-12-15T03:15:30.487Z,28.40
2017-12-15T03:17:56.230Z,29.67
2017-12-15T03:20:21.995Z,30.67
2017-12-15T03:22:47.742Z,29.10
2017-12-15T03:25:13.513Z,30.30
2017-12-15T03:27:39.273Z,29.57
2017-12-15T03:30:05.046Z,30.80
2017-12-15T03:32:30.816Z,31.47
2017-12-15T03:34:56.581Z,29.97
2017-12-15T03:37:22.337Z,31.13
2017-12-15T03:39:48.126Z,30.03
2017-12-15T03:42:13.870Z,29.33
2017-12-15T03:44:39.658Z,32.30
2017-12-15T03:47:05.414Z,31.73
2017-12-15T03:49:31.162Z,32.37
2017-12-15T03:51:56.933Z,30.97
2017-12-15T03:54:22.680Z,31.80
2017-12-15T03:56:48.447Z,31.57
2017-12-15T03:59:14.194Z,33.30
2017-12-15T04:01:39.961Z,32.47
2017-12-15T04:04:05.703Z,32.27
2017-12-15T04:06:31.488Z,33.93
2017-12-15T04:08:57.269Z,32.60
2017-12-15T04:11:23.041Z,32.60
2017-12-15T04:13:48.801Z,32.60
2017-12-15T04:16:14.572Z,33.33
2017-12-15T04:18:40.349Z,33.97
2017-12-15T04:21:06.123Z,34.13
2017-12-15T04:23:31.883Z,32.97
2017-12-15T04:25:57.655Z,33.63
2017-12-15T04:28:23.412Z,33.77
2017-12-15T04:30:49.173Z,34.47
2017-12-15T04:33:14.939Z,33.97
2017-12-15T04:35:40.723Z,33.57
2017-12-15T04:38:06.484Z,32.50
2017-12-15T04:40:32.236Z,33.13
2017-12-15T04:42:57.999Z,32.97
2017-12-15T04:45:23.755Z,32.27
2017-12-15T04:47:49.531Z,32.77
2017-12-15T04:50:15.271Z,32.60
2017-12-15T04:52:41.063Z,32.67
2017-12-15T04:55:06.810Z,33.40
2017-12-15T04:57:32.565Z,31.93
2017-12-15T04:59:58.337Z,33.00
2017-12-15T05:02:24.091Z,31.70
2017-12-15T05:04:49.855Z,33.07
2017-12-15T05:07:15.615Z,32.90
2017-12-15T05:09:41.381Z,34.43
2017-12-15T05:12:07.127Z,34.10
2017-12-15T05:14:32.891Z,34.77
2017-12-15T05:16:58.664Z,32.00
2017-12-15T05:19:24.419Z,33.80
2017-12-15T05:21:50.173Z,34.17
2017-12-15T05:24:15.939Z,33.57
2017-12-15T05:26:41.680Z,33.30
2017-12-15T05:29:07.455Z,32.10
2017-12-15T05:31:33.222Z,33.30
2017-12-15T05:33:58.986Z,33.50
2017-12-15T05:36:24.736Z,33.50
2017-12-15T05:38:50.496Z,35.60
2017-12-15T05:41:16.253Z,35.43
2017-12-15T05:43:42.021Z,34.27
2017-12-15T05:46:07.787Z,35.73
2017-12-15T05:48:33.551Z,34.13
2017-12-15T05:50:59.308Z,36.83
2017-12-15T05:53:25.054Z,34.70
2017-12-15T05:55:50.820Z,33.53
2017-12-15T05:58:16.568Z,36.57
2017-12-15T06:00:42.328Z,36.07
2017-12-15T06:03:08.079Z,36.10
2017-12-15T06:05:33.847Z,34.20
2017-12-15T06:07:59.591Z,35.67
2017-12-15T06:10:25.347Z,35.03
2017-12-15T06:12:51.106Z,36.60
2017-12-15T06:17:58.797Z,36.75
2017-12-15T06:20:24.567Z,35.53
2017-12-15T06:22:50.312Z,35.63
2017-12-15T06:25:16.075Z,37.80
2017-12-15T06:27:41.824Z,40.03
2017-12-15T06:30:07.589Z,36.60
2017-12-15T06:32:33.355Z,36.60
2017-12-15T06:34:59.121Z,37.97
2017-12-15T06:37:24.876Z,35.50
2017-12-15T06:39:50.614Z,35.27
2017-12-15T06:42:16.399Z,35.13
2017-12-15T06:44:42.163Z,33.43
2017-12-15T06:47:07.923Z,35.60
2017-12-15T06:49:33.674Z,35.83
2017-12-15T06:51:59.435Z,34.77
2017-12-15T06:54:25.196Z,34.77
2017-12-15T06:56:50.955Z,35.03
2017-12-15T06:59:16.707Z,35.27
2017-12-15T07:01:42.455Z,34.73
2017-12-15T07:04:08.211Z,32.60
2017-12-15T07:06:34.039Z,35.07
2017-12-15T07:08:59.747Z,36.03
2017-12-15T07:11:25.504Z,36.50
2017-12-15T07:13:51.271Z,33.73
2017-12-15T07:16:17.019Z,35.50
2017-12-15T07:18:42.772Z,34.70
2017-12-15T07:21:08.510Z,35.17
2017-12-15T07:23:34.268Z,34.90
2017-12-15T07:26:00.014Z,35.93
2017-12-15T07:28:25.774Z,35.47
2017-12-15T07:30:51.536Z,35.23
2017-12-15T07:33:17.307Z,35.90
2017-12-15T07:35:43.046Z,33.47
2017-12-15T07:38:08.791Z,34.17
2017-12-15T07:40:34.565Z,32.10
2017-12-15T07:43:00.324Z,30.90
2017-12-15T07:45:26.146Z,31.30
2017-12-15T07:47:51.863Z,31.43
2017-12-15T07:50:17.627Z,30.90
2017-12-15T07:52:43.383Z,30.63
2017-12-15T07:55:09.144Z,30.03
2017-12-15T07:57:34.908Z,29.23
2017-12-15T08:00:00.673Z,29.00
2017-12-15T08:02:26.415Z,28.07
2017-12-15T08:04:52.174Z,27.27
2017-12-15T08:07:18.033Z,28.73
2017-12-15T08:09:43.699Z,28.40
2017-12-15T08:12:09.447Z,28.90
2017-12-15T08:14:35.213Z,27.50
2017-12-15T08:17:00.963Z,26.80
2017-12-15T08:19:26.728Z,28.17
2017-12-15T08:21:52.473Z,28.13
2017-12-15T08:24:18.239Z,26.27
2017-12-15T08:26:44.011Z,26.03
2017-12-15T08:29:09.750Z,26.80
2017-12-15T08:31:35.527Z,26.37
2017-12-15T08:34:01.304Z,28.30
2017-12-15T08:36:27.076Z,27.83
2017-12-15T08:38:52.821Z,28.13
2017-12-15T08:41:18.597Z,27.70
2017-12-15T08:43:44.341Z,27.03
2017-12-15T08:46:10.102Z,27.60
2017-12-15T08:48:35.870Z,26.90
2017-12-15T08:51:01.622Z,27.27
2017-12-15T08:53:27.382Z,25.73
2017-12-15T08:55:53.135Z,25.47
2017-12-15T08:58:18.890Z,27.17
2017-12-15T09:00:44.659Z,25.37
2017-12-15T09:03:10.411Z,27.60
2017-12-15T09:05:36.175Z,25.73
2017-12-15T09:08:01.931Z,28.17
2017-12-15T09:10:27.691Z,27.27
2017-12-15T09:12:53.455Z,27.43
2017-12-15T09:15:19.210Z,26.60
2017-12-15T09:17:44.980Z,24.87
2017-12-15T09:20:10.727Z,27.53
2017-12-15T09:22:36.493Z,26.10
2017-12-15T09:25:02.244Z,27.30
2017-12-15T09:27:27.995Z,27.77
2017-12-15T09:29:53.756Z,27.90
2017-12-15T09:32:19.507Z,28.13
2017-12-15T09:34:45.263Z,29.37
2017-12-15T09:37:11.016Z,29.43
2017-12-15T09:39:36.758Z,28.43
2017-12-15T09:42:02.523Z,29.23
2017-12-15T09:44:28.276Z,29.30
2017-12-15T09:46:54.034Z,27.93
2017-12-15T09:49:19.796Z,28.47
2017-12-15T09:51:45.555Z,27.83
2017-12-15T09:54:11.319Z,27.07
2017-12-15T09:56:37.072Z,28.37
2017-12-15T09:59:02.835Z,27.63
2017-12-15T10:01:28.599Z,27.57
2017-12-15T10:03:54.352Z,26.07
2017-12-15T10:06:20.102Z,27.33
2017-12-15T10:08:45.867Z,27.33
2017-12-15T10:11:11.611Z,26.87
2017-12-15T10:13:37.357Z,28.50
2017-12-15T10:16:03.134Z,27.57
2017-12-15T10:18:28.875Z,26.70
2017-12-15T10:20:54.641Z,28.90
2017-12-15T10:23:20.399Z,28.63
2017-12-15T10:25:46.151Z,30.37
2017-12-15T10:28:11.898Z,30.27
2017-12-15T10:30:37.667Z,31.53
2017-12-15T10:33:03.426Z,31.00
2017-12-15T10:35:29.193Z,29.33
2017-12-15T10:37:54.939Z,31.57
2017-12-15T10:40:20.691Z,32.17
2017-12-15T10:42:46.433Z,32.63
2017-12-15T10:45:12.196Z,34.53
2017-12-15T10:47:37.954Z,35.60
2017-12-15T10:50:03.724Z,34.70
2017-12-15T10:52:29.476Z,36.17
2017-12-15T10:54:55.233Z,35.13
2017-12-15T10:57:20.968Z,35.97
2017-12-15T10:59:46.728Z,34.20
2017-12-15T11:02:12.491Z,35.53
2017-12-15T11:04:38.244Z,33.00
2017-12-15T11:07:04.012Z,33.53
2017-12-15T11:09:29.756Z,35.97
2017-12-15T11:11:56.127Z,34.57
2017-12-15T11:14:21.898Z,32.50
2017-12-15T11:16:47.663Z,34.47
2017-12-15T11:19:13.411Z,33.93
2017-12-15T11:21:39.176Z,33.63
2017-12-15T11:24:04.932Z,33.70
2017-12-15T11:26:30.751Z,32.87
2017-12-15T11:28:56.571Z,33.87
2017-12-15T11:31:22.275Z,31.13
2017-12-15T11:33:48.043Z,31.30
2017-12-15T11:36:13.803Z,30.53
2017-12-15T11:38:39.543Z,30.07
2017-12-15T11:41:05.286Z,31.47
2017-12-15T11:43:31.057Z,31.87
2017-12-15T11:45:56.807Z,32.53
2017-12-15T11:48:22.588Z,34.70
2017-12-15T11:50:48.342Z,32.07
2017-12-15T11:53:14.103Z,31.40
2017-12-15T11:55:39.868Z,32.13
2017-12-15T11:58:05.631Z,33.40
2017-12-15T12:00:31.387Z,33.77
2017-12-15T12:02:57.154Z,34.37
2017-12-15T12:05:22.908Z,31.87
2017-12-15T12:07:48.676Z,31.00
2017-12-15T12:10:14.428Z,33.03
2017-12-15T12:12:40.184Z,34.03
2017-12-15T12:15:05.954Z,34.73
2017-12-15T12:17:31.713Z,33.10
2017-12-15T12:19:57.473Z,35.03
2017-12-15T12:22:23.231Z,34.43
2017-12-15T12:24:48.999Z,34.60
2017-12-15T12:27:14.762Z,35.30
2017-12-15T12:29:40.532Z,35.37
2017-12-15T12:32:06.292Z,35.03
2017-12-15T12:34:32.067Z,37.07
2017-12-15T12:36:57.808Z,36.00
2017-12-15T12:39:23.571Z,37.80
2017-12-15T12:41:49.310Z,36.60
2017-12-15T12:44:15.060Z,37.20
2017-12-15T12:46:40.816Z,36.07
2017-12-15T12:49:06.582Z,37.53
2017-12-15T12:51:32.326Z,40.17
2017-12-15T12:53:58.072Z,38.20
2017-12-15T12:56:23.835Z,40.97
2017-12-15T12:58:49.584Z,38.20
2017-12-15T13:01:15.364Z,40.20
2017-12-15T13:03:41.120Z,40.23
2017-12-15T13:06:06.887Z,40.50
2017-12-15T13:08:32.627Z,40.67
2017-12-15T13:10:58.397Z,41.20
2017-12-15T13:13:24.148Z,41.90
2017-12-15T13:15:49.920Z,45.03
2017-12-15T13:18:15.683Z,43.23
2017-12-15T13:20:41.470Z,42.67
2017-12-15T13:23:07.263Z,41.27
2017-12-15T13:25:33.030Z,42.30
2017-12-15T13:27:58.779Z,43.23
2017-12-15T13:30:24.536Z,43.07
2017-12-15T13:32:50.304Z,43.00
2017-12-15T13:35:16.068Z,43.40
2017-12-15T13:37:41.824Z,42.50
2017-12-15T13:40:07.585Z,43.37
2017-12-15T13:42:33.354Z,43.03
2017-12-15T13:44:59.091Z,42.23
2017-12-15T13:47:24.859Z,43.30
2017-12-15T13:49:50.748Z,41.67
2017-12-15T13:52:16.530Z,40.33
2017-12-15T13:54:42.299Z,42.30
2017-12-15T13:57:08.046Z,41.37
2017-12-15T13:59:33.822Z,42.67
2017-12-15T14:01:59.583Z,40.20
2017-12-15T14:04:25.346Z,42.73
2017-12-15T14:06:51.135Z,43.17
2017-12-15T14:09:16.872Z,39.87
2017-12-15T14:11:42.617Z,40.33
2017-12-15T14:14:08.362Z,41.27
2017-12-15T14:16:34.119Z,42.20
2017-12-15T14:18:59.880Z,40.73
2017-12-15T14:21:25.640Z,40.13
2017-12-15T14:23:51.420Z,39.63
2017-12-15T14:26:17.179Z,40.37
2017-12-15T14:28:42.942Z,38.20
2017-12-15T14:31:08.702Z,37.13
2017-12-15T14:33:34.483Z,39.80
2017-12-15T14:36:00.232Z,35.77
2017-12-15T14:38:26.002Z,38.27
2017-12-15T14:40:51.748Z,39.43
2017-12-15T14:43:17.504Z,39.30
2017-12-15T14:45:43.276Z,38.63
2017-12-15T14:48:09.033Z,37.00
2017-12-15T14:50:34.800Z,38.43
2017-12-15T14:53:00.556Z,36.47
2017-12-15T14:55:26.326Z,37.90
2017-12-15T14:57:52.072Z,39.13
2017-12-15T15:00:17.860Z,40.43
2017-12-15T15:02:43.648Z,38.00
2017-12-15T15:05:09.416Z,38.07
2017-12-15T15:07:35.171Z,38.37
2017-12-15T15:10:00.948Z,37.53
2017-12-15T15:12:26.688Z,34.17
2017-12-15T15:14:52.444Z,38.37
2017-12-15T15:17:18.230Z,39.20
2017-12-15T15:19:43.956Z,37.63
2017-12-15T15:22:09.714Z,37.20
2017-12-15T15:24:35.482Z,38.47
2017-12-15T15:27:01.226Z,42.33
2017-12-15T15:29:26.975Z,39.80
2017-12-15T15:31:52.744Z,42.53
2017-12-15T15:34:18.511Z,43.57
2017-12-15T15:36:44.275Z,43.57
2017-12-15T15:39:10.035Z,41.70
2017-12-15T15:41:35.815Z,43.83
2017-12-15T15:44:01.594Z,42.50
2017-12-15T15:46:27.352Z,42.77
2017-12-15T15:48:53.132Z,43.00
2017-12-15T15:51:18.911Z,42.37
2017-12-15T15:53:44.743Z,43.37
2017-12-15T15:56:10.515Z,43.87
2017-12-15T15:58:36.310Z,43.90
2017-12-15T16:01:02.068Z,42.77
2017-12-15T16:03:27.845Z,44.03
2017-12-15T16:05:53.619Z,43.03
2017-12-15T16:08:19.419Z,44.63
2017-12-15T16:10:45.175Z,44.73
2017-12-15T16:13:10.968Z,44.70
2017-12-15T16:15:36.728Z,44.40
2017-12-15T16:18:02.491Z,43.93
2017-12-15T16:20:28.252Z,44.97
2017-12-15T16:22:54.011Z,45.40
2017-12-15T16:25:20.335Z,44.73
2017-12-15T16:27:52.074Z,43.17
2017-12-15T16:30:18.045Z,44.17
2017-12-15T16:32:44.480Z,42.63
2017-12-15T16:35:11.148Z,44.88
2017-12-15T16:37:37.261Z,46.80
2017-12-15T16:40:04.593Z,45.65
2017-12-15T16:42:30.371Z,43.67
2017-12-15T16:44:56.404Z,43.43
2017-12-15T16:47:22.639Z,41.35
2017-12-15T16:49:48.579Z,40.08
2017-12-15T16:52:14.689Z,42.10
2017-12-15T16:54:40.615Z,38.47
2017-12-15T16:57:06.549Z,39.23
2017-12-15T16:59:32.371Z,38.87
2017-12-15T17:01:58.132Z,35.87
2017-12-15T17:04:23.899Z,33.90
2017-12-15T17:06:49.706Z,32.80
2017-12-15T17:09:16.612Z,31.93
2017-12-15T17:11:42.400Z,30.92
2017-12-15T17:14:08.199Z,32.53
2017-12-15T17:16:33.965Z,28.77
2017-12-15T17:18:59.716Z,30.23
2017-12-15T17:21:25.502Z,31.63
2017-12-15T17:23:51.276Z,31.20
2017-12-15T17:26:17.038Z,32.33
2017-12-15T17:28:42.784Z,30.47
2017-12-15T17:31:08.560Z,33.87
2017-12-15T17:33:34.335Z,31.70
2017-12-15T17:36:00.115Z,32.90
2017-12-15T17:38:25.894Z,31.53
2017-12-15T17:40:51.652Z,30.13
2017-12-15T17:43:17.394Z,29.03
2017-12-15T17:45:43.160Z,30.43
2017-12-15T17:48:08.918Z,28.47
2017-12-15T17:50:34.684Z,31.43
2017-12-15T17:53:00.489Z,25.50
2017-12-15T17:56:22.295Z,28.30
2017-12-15T17:58:48.056Z,31.37
2017-12-15T18:01:13.868Z,34.60
2017-12-15T18:03:39.628Z,34.87
2017-12-15T18:06:05.396Z,34.57
2017-12-15T18:08:31.157Z,34.10
2017-12-15T18:10:58.273Z,33.80
2017-12-15T18:13:25.549Z,35.55
2017-12-15T18:15:53.080Z,34.03
2017-12-15T18:18:18.920Z,33.90
2017-12-15T18:20:44.670Z,34.60
2017-12-15T18:23:10.441Z,31.83
2017-12-15T18:25:36.197Z,34.73
2017-12-15T18:28:01.973Z,32.87
2017-12-15T18:30:27.733Z,32.63
2017-12-15T18:32:53.508Z,33.23
2017-12-15T18:35:19.378Z,33.93
2017-12-15T18:37:45.248Z,32.50
2017-12-15T18:40:10.996Z,31.17
2017-12-15T18:42:36.763Z,31.70
2017-12-15T18:45:02.511Z,30.07
2017-12-15T18:47:28.283Z,29.70
2017-12-15T18:49:54.055Z,30.23
2017-12-15T18:52:19.832Z,29.77
2017-12-15T18:54:45.598Z,30.03
2017-12-15T18:57:11.347Z,28.90
2017-12-15T18:59:37.215Z,29.20
2017-12-15T19:02:03.023Z,28.90
2017-12-15T19:04:28.803Z,29.83
2017-12-15T19:06:54.718Z,30.33
2017-12-15T19:10:17.336Z,22.62
2017-12-15T19:12:43.110Z,24.67
2017-12-15T19:15:08.862Z,23.27
2017-12-15T19:17:34.611Z,26.03
2017-12-15T19:20:00.387Z,26.93
2017-12-15T19:22:26.147Z,26.67
2017-12-15T19:24:52.152Z,28.17
2017-12-15T19:27:17.918Z,28.85
2017-12-15T19:29:43.745Z,25.63
2017-12-15T19:32:09.461Z,27.70
2017-12-15T19:34:35.224Z,27.57
2017-12-15T19:37:00.982Z,25.93
2017-12-15T19:39:26.747Z,27.63
2017-12-15T19:41:52.507Z,27.07
2017-12-15T19:44:18.268Z,27.77
2017-12-15T19:46:44.023Z,26.97
2017-12-15T19:49:09.792Z,26.60
2017-12-15T19:51:35.535Z,27.10
2017-12-15T19:54:01.327Z,27.70
2017-12-15T19:56:27.059Z,28.20
2017-12-15T19:58:52.846Z,29.37
2017-12-15T20:01:18.591Z,28.63
2017-12-15T20:03:44.390Z,27.17
2017-12-15T20:06:10.175Z,27.40
2017-12-15T20:08:36.105Z,28.53
2017-12-15T20:11:01.881Z,29.00
2017-12-15T20:13:27.636Z,27.80
2017-12-15T20:15:53.413Z,29.17
2017-12-15T20:18:19.172Z,28.50
2017-12-15T20:20:44.947Z,27.70
2017-12-15T20:23:10.688Z,28.90
2017-12-15T20:25:36.492Z,30.10
2017-12-15T20:28:02.275Z,28.57
2017-12-15T20:30:28.058Z,29.00
2017-12-15T20:32:53.836Z,29.23
2017-12-15T20:35:19.638Z,28.70
2017-12-15T20:37:45.390Z,30.10
2017-12-15T20:40:11.149Z,30.60
2017-12-15T20:42:36.916Z,30.90
2017-12-15T20:45:02.676Z,30.23
2017-12-15T20:47:28.440Z,28.93
2017-12-15T20:52:26.798Z,28.25
2017-12-15T20:54:52.547Z,28.20
2017-12-15T20:57:18.315Z,27.63
2017-12-15T20:59:44.089Z,28.93
2017-12-15T21:02:09.835Z,27.10
2017-12-15T21:04:35.595Z,26.67
2017-12-15T21:07:01.364Z,28.13
2017-12-15T21:09:27.150Z,27.53
2017-12-15T21:11:52.936Z,26.73
2017-12-15T21:14:18.812Z,26.63
2017-12-15T21:16:44.605Z,26.17
2017-12-15T21:19:10.343Z,26.93
2017-12-15T21:21:36.078Z,26.50
2017-12-15T21:24:01.824Z,25.20
2017-12-15T21:26:27.578Z,26.20
2017-12-15T21:28:53.347Z,27.87
2017-12-15T21:31:19.103Z,26.73
2017-12-15T21:33:44.878Z,26.70
2017-12-15T21:36:10.627Z,25.20
2017-12-15T21:38:36.388Z,27.50
2017-12-15T21:41:02.135Z,25.53
2017-12-15T21:43:27.905Z,25.60
2017-12-15T21:45:53.647Z,25.60
2017-12-15T21:48:19.415Z,25.80
2017-12-15T21:50:45.168Z,25.97
2017-12-15T21:53:10.924Z,25.33
2017-12-15T21:55:36.650Z,25.03
2017-12-15T21:58:09.435Z,24.43
2017-12-15T22:00:35.191Z,25.52
2017-12-15T22:03:00.968Z,24.60
2017-12-15T22:05:26.720Z,25.07
2017-12-15T22:07:52.475Z,24.13
2017-12-15T22:10:18.215Z,23.90
2017-12-15T22:12:43.967Z,25.83
2017-12-15T22:15:09.743Z,25.00
2017-12-15T22:17:35.487Z,24.07
2017-12-15T22:20:01.251Z,25.10
2017-12-15T22:22:27.011Z,24.00
2017-12-15T22:24:52.772Z,25.63
2017-12-15T22:27:18.543Z,24.73
2017-12-15T22:29:44.304Z,23.90
2017-12-15T22:32:10.059Z,25.10
2017-12-15T22:34:35.843Z,25.23
2017-12-15T22:37:01.592Z,24.50
2017-12-15T22:39:27.346Z,25.00
2017-12-15T22:41:53.095Z,25.57
2017-12-15T22:44:18.869Z,25.93
2017-12-15T22:46:44.615Z,23.97
2017-12-15T22:49:10.364Z,25.77
2017-12-15T22:51:36.126Z,27.77
2017-12-15T22:54:01.907Z,25.57
2017-12-15T22:56:27.647Z,26.13
2017-12-15T22:58:53.405Z,25.97
2017-12-15T23:01:19.172Z,27.37
2017-12-15T23:03:44.930Z,27.03
2017-12-15T23:06:10.687Z,27.43
2017-12-15T23:08:36.475Z,25.90
2017-12-15T23:11:02.236Z,25.00
2017-12-15T23:13:27.992Z,27.67
2017-12-15T23:15:53.756Z,26.77
2017-12-15T23:18:19.491Z,25.07
2017-12-15T23:20:45.243Z,26.07
2017-12-15T23:23:10.995Z,27.50
2017-12-15T23:25:36.755Z,26.17
2017-12-15T23:28:02.511Z,27.03
2017-12-15T23:30:28.272Z,27.37
2017-12-15T23:32:54.022Z,26.13
2017-12-15T23:35:19.803Z,28.43
2017-12-15T23:37:45.568Z,27.03
2017-12-15T23:40:11.506Z,27.60
2017-12-15T23:42:37.247Z,26.70
2017-12-15T23:45:03.035Z,27.47
2017-12-15T23:47:28.804Z,27.37
2017-12-15T23:49:54.611Z,27.03
2017-12-15T23:52:20.534Z,28.40
2017-12-15T23:54:58.766Z,27.30
2017-12-15T23:57:24.518Z,27.15
2017-12-15T23:59:50.331Z,28.00
